SASJ/JUJ METAR and TAF weather

Enter ICAO airport designator
Station Type Date Time Source
SASJ METAR 2021/02/25 01:00 UTC NOAA

SASJ 250100Z 18008KT 9999 SCT008 OVC050 24/20 Q1016


Station Type Date Time Source
SASJ Decoded METAR 2021/02/25 01:00 UTC NOAA

Jujuy Aerodrome, Argentina (SASJ) 24-23S 065-05W 905M
Feb 24, 2021 - 08:00 PM EST / 2021.02.25 0100 UTC
Wind: from the S (180 degrees) at 9 MPH (8 KT):0
Visibility: greater than 7 mile(s):0
Sky conditions: overcast
Temperature: 75 F (24 C)
Dew Point: 68 F (20 C)
Relative Humidity: 78%
Pressure (altimeter): 30.00 in. Hg (1016 hPa)
ob: SASJ 250100Z 18008KT 9999 SCT008 OVC050 24/20 Q1016
cycle: 1

Station Type Date Time Source
SASJ TAF 2021/02/24 18:25 UTC NOAA

TAF SASJ 241700Z 2418/2518 29005KT 9999 BKN030 FEW040TCU TX31/2418Z TN21/2509Z
TEMPO 2500/2506 24005KT 6000 TSRA BKN015 FEW040CB

Example: see airport list